createdAt,value
2019-06-15T00:01:07.574Z,5.08
2019-06-15T00:03:11.976Z,5.10
2019-06-15T00:05:16.207Z,8.28
2019-06-15T00:07:20.455Z,4.30
2019-06-15T00:09:24.642Z,4.75
2019-06-15T00:11:28.971Z,4.62
2019-06-15T00:13:33.147Z,4.62
2019-06-15T00:15:37.303Z,5.00
2019-06-15T00:17:41.509Z,4.12
2019-06-15T00:19:45.762Z,5.35
2019-06-15T00:21:49.947Z,4.42
2019-06-15T00:23:54.128Z,4.12
2019-06-15T00:25:58.312Z,4.40
2019-06-15T00:28:02.483Z,4.90
2019-06-15T00:30:08.135Z,4.00
2019-06-15T00:32:12.298Z,4.50
2019-06-15T00:34:16.489Z,4.17
2019-06-15T00:36:20.662Z,4.10
2019-06-15T00:38:24.857Z,4.72
2019-06-15T00:40:29.046Z,5.00
2019-06-15T00:42:33.206Z,4.78
2019-06-15T00:44:37.418Z,5.97
2019-06-15T00:46:41.806Z,4.05
2019-06-15T00:48:46.001Z,5.45
2019-06-15T00:50:50.172Z,4.67
2019-06-15T00:52:54.326Z,4.85
2019-06-15T00:54:58.617Z,4.72
2019-06-15T00:57:02.838Z,5.90
2019-06-15T00:59:07.057Z,5.62
2019-06-15T01:01:11.329Z,4.92
2019-06-15T01:03:15.495Z,4.22
2019-06-15T01:05:19.753Z,7.28
2019-06-15T01:07:23.907Z,4.60
2019-06-15T01:09:28.078Z,4.65
2019-06-15T01:11:32.251Z,4.67
2019-06-15T01:13:36.478Z,6.10
2019-06-15T01:15:40.771Z,4.25
2019-06-15T01:17:44.935Z,5.12
2019-06-15T01:19:49.196Z,3.60
2019-06-15T01:21:53.357Z,3.95
2019-06-15T01:23:57.527Z,4.67
2019-06-15T01:26:01.713Z,4.28
2019-06-15T01:28:05.950Z,5.85
2019-06-15T01:30:11.284Z,4.17
2019-06-15T01:32:15.534Z,5.47
2019-06-15T01:34:19.695Z,7.67
2019-06-15T01:36:23.869Z,8.00
2019-06-15T01:38:28.124Z,5.90
2019-06-15T01:40:32.284Z,7.87
2019-06-15T01:42:36.440Z,9.95
2019-06-15T01:44:40.334Z,5.78
2019-06-15T01:46:44.028Z,6.55
2019-06-15T01:48:47.822Z,5.85
2019-06-15T01:50:51.464Z,5.67
2019-06-15T01:52:55.150Z,7.08
2019-06-15T01:54:59.148Z,7.62
2019-06-15T01:57:02.844Z,7.33
2019-06-15T01:59:06.650Z,10.45
2019-06-15T02:01:10.427Z,7.40
2019-06-15T02:03:14.047Z,9.68
2019-06-15T02:05:17.943Z,6.50
2019-06-15T02:07:21.782Z,11.15
2019-06-15T02:09:25.556Z,9.03
2019-06-15T02:11:29.267Z,6.87
2019-06-15T02:13:32.892Z,8.43
2019-06-15T02:15:36.629Z,11.38
2019-06-15T02:17:40.315Z,8.08
2019-06-15T02:19:44.006Z,8.00
2019-06-15T02:21:47.657Z,12.35
2019-06-15T02:23:51.268Z,8.43
2019-06-15T02:25:54.967Z,10.40
2019-06-15T02:27:58.614Z,10.48
2019-06-15T02:30:02.601Z,9.25
2019-06-15T02:32:06.217Z,9.25
2019-06-15T02:34:09.851Z,8.70
2019-06-15T02:36:13.474Z,9.03
2019-06-15T02:38:17.171Z,8.20
2019-06-15T02:40:20.981Z,10.10
2019-06-15T02:42:24.595Z,10.15
2019-06-15T02:44:28.233Z,8.93
2019-06-15T02:46:31.848Z,10.08
2019-06-15T02:48:35.497Z,11.73
2019-06-15T02:50:39.112Z,12.37
2019-06-15T02:52:42.808Z,15.48
2019-06-15T02:54:46.694Z,17.15
2019-06-15T02:56:50.425Z,11.03
2019-06-15T02:58:54.047Z,16.17
2019-06-15T03:01:08.333Z,12.75
2019-06-15T03:03:11.957Z,12.82
2019-06-15T03:05:15.584Z,12.82
2019-06-15T03:07:19.319Z,16.60
2019-06-15T03:09:22.966Z,17.77
2019-06-15T03:11:26.913Z,13.28
2019-06-15T03:13:30.744Z,14.90
2019-06-15T03:15:34.458Z,15.58
2019-06-15T03:17:38.208Z,15.48
2019-06-15T03:19:41.895Z,14.18
2019-06-15T03:21:45.633Z,13.25
2019-06-15T03:23:49.307Z,24.18
2019-06-15T03:26:04.600Z,28.52
2019-06-15T03:27:58.480Z,24.67
2019-06-15T03:30:02.224Z,21.35
2019-06-15T03:32:05.976Z,19.27
2019-06-15T03:34:09.608Z,20.27
2019-06-15T03:36:13.266Z,18.90
2019-06-15T03:38:16.893Z,19.23
2019-06-15T03:40:20.641Z,21.30
2019-06-15T03:42:24.342Z,24.40
2019-06-15T03:44:28.093Z,23.32
2019-06-15T03:46:31.803Z,21.17
2019-06-15T03:48:35.440Z,23.32
2019-06-15T03:50:39.106Z,21.52
2019-06-15T03:52:42.749Z,22.17
2019-06-15T03:54:46.406Z,22.62
2019-06-15T03:56:50.154Z,22.00
2019-06-15T03:58:53.861Z,22.22
2019-06-15T04:01:04.538Z,20.17
2019-06-15T04:03:08.159Z,21.07
2019-06-15T04:05:11.768Z,21.05
2019-06-15T04:07:15.409Z,20.97
2019-06-15T04:09:19.110Z,19.85
2019-06-15T04:11:22.759Z,20.43
2019-06-15T04:13:26.403Z,19.85
2019-06-15T04:15:30.040Z,20.00
2019-06-15T04:17:33.662Z,20.80
2019-06-15T04:19:37.303Z,19.70
2019-06-15T04:21:40.960Z,20.72
2019-06-15T04:23:44.615Z,20.48
2019-06-15T04:25:48.243Z,19.77
2019-06-15T04:27:51.879Z,19.85
2019-06-15T04:29:55.496Z,19.25
2019-06-15T04:31:59.119Z,18.80
2019-06-15T04:34:02.918Z,17.92
2019-06-15T04:36:06.540Z,15.88
2019-06-15T04:38:10.163Z,17.98
2019-06-15T04:40:15.276Z,16.80
2019-06-15T04:42:18.919Z,16.52
2019-06-15T04:44:22.660Z,16.17
2019-06-15T04:46:26.282Z,16.73
2019-06-15T04:48:29.974Z,16.97
2019-06-15T04:50:33.641Z,17.07
2019-06-15T04:52:37.259Z,17.67
2019-06-15T04:54:40.897Z,18.55
2019-06-15T04:56:50.861Z,18.27
2019-06-15T04:58:49.885Z,18.27
2019-06-15T05:00:53.615Z,17.95
2019-06-15T05:02:57.255Z,19.17
2019-06-15T05:05:00.891Z,15.63
2019-06-15T05:07:04.787Z,16.80
2019-06-15T05:09:08.411Z,17.92
2019-06-15T05:11:12.056Z,18.92
2019-06-15T05:13:15.760Z,17.57
2019-06-15T05:15:19.449Z,17.48
2019-06-15T05:17:23.121Z,17.07
2019-06-15T05:19:26.832Z,21.87
2019-06-15T05:21:30.497Z,18.48
2019-06-15T05:23:34.134Z,18.75
2019-06-15T05:25:37.752Z,19.95
2019-06-15T05:27:41.452Z,18.65
2019-06-15T05:29:45.090Z,17.37
2019-06-15T05:31:48.711Z,18.23
2019-06-15T05:33:52.436Z,17.30
2019-06-15T05:35:56.048Z,17.92
2019-06-15T05:37:59.780Z,16.60
2019-06-15T05:40:03.536Z,18.67
2019-06-15T05:42:07.231Z,17.40
2019-06-15T05:44:10.941Z,17.15
2019-06-15T05:46:14.661Z,17.32
2019-06-15T05:48:18.291Z,17.35
2019-06-15T05:50:21.973Z,16.05
2019-06-15T05:52:25.610Z,16.87
2019-06-15T05:54:29.567Z,16.77
2019-06-15T05:56:33.572Z,18.57
2019-06-15T05:58:37.310Z,17.50
2019-06-15T06:00:41.012Z,18.23
2019-06-15T06:02:44.669Z,17.45
2019-06-15T06:04:48.303Z,17.05
2019-06-15T06:06:51.935Z,19.12
2019-06-15T06:08:55.592Z,18.07
2019-06-15T06:10:59.298Z,19.25
2019-06-15T06:13:02.973Z,18.52
2019-06-15T06:15:07.825Z,19.87
2019-06-15T06:17:11.445Z,20.05
2019-06-15T06:19:15.177Z,18.37
2019-06-15T06:21:18.879Z,20.12
2019-06-15T06:23:22.583Z,17.48
2019-06-15T06:25:26.314Z,20.05
2019-06-15T06:27:36.443Z,18.00
2019-06-15T06:29:35.391Z,17.60
2019-06-15T06:31:39.026Z,18.57
2019-06-15T06:33:42.668Z,19.45
2019-06-15T06:35:46.324Z,20.32
2019-06-15T06:37:49.952Z,19.32
2019-06-15T06:39:53.654Z,20.00
2019-06-15T06:41:57.303Z,18.42
2019-06-15T06:44:01.013Z,17.65
2019-06-15T06:46:04.666Z,20.72
2019-06-15T06:48:08.282Z,19.30
2019-06-15T06:50:12.414Z,19.55
2019-06-15T06:52:16.082Z,20.43
2019-06-15T06:54:19.791Z,20.15
2019-06-15T06:56:23.418Z,17.82
2019-06-15T06:58:27.085Z,22.67
2019-06-15T07:00:30.721Z,21.75
2019-06-15T07:02:34.375Z,19.27
2019-06-15T07:04:38.063Z,18.15
2019-06-15T07:06:41.729Z,21.80
2019-06-15T07:08:47.953Z,21.52
2019-06-15T07:10:50.749Z,19.48
2019-06-15T07:12:54.462Z,19.62
2019-06-15T07:14:58.161Z,18.12
2019-06-15T07:17:02.024Z,20.10
2019-06-15T07:19:06.165Z,17.12
2019-06-15T07:21:11.290Z,16.05
2019-06-15T07:23:14.994Z,16.70
2019-06-15T07:25:19.103Z,16.07
2019-06-15T07:27:22.806Z,16.25
2019-06-15T07:29:26.447Z,15.98
2019-06-15T07:31:30.153Z,19.00
2019-06-15T07:33:33.788Z,18.37
2019-06-15T07:35:37.441Z,21.07
2019-06-15T07:37:41.178Z,17.50
2019-06-15T07:39:44.900Z,17.52
2019-06-15T07:41:48.600Z,18.55
2019-06-15T07:43:52.234Z,15.78
2019-06-15T07:45:55.963Z,17.75
2019-06-15T07:47:59.668Z,17.67
2019-06-15T07:50:03.559Z,16.67
2019-06-15T07:52:07.215Z,19.85
2019-06-15T07:54:10.977Z,18.02
2019-06-15T07:56:14.674Z,18.25
2019-06-15T07:58:24.539Z,17.42
2019-06-15T08:00:23.751Z,17.12
2019-06-15T08:02:27.425Z,17.20
2019-06-15T08:04:31.133Z,16.32
2019-06-15T08:06:34.845Z,19.85
2019-06-15T08:08:38.574Z,18.23
2019-06-15T08:10:42.199Z,17.65
2019-06-15T08:12:45.840Z,17.87
2019-06-15T08:14:49.574Z,16.87
2019-06-15T08:16:53.323Z,18.15
2019-06-15T08:18:56.978Z,16.23
2019-06-15T08:21:00.660Z,16.70
2019-06-15T08:23:04.370Z,18.12
2019-06-15T08:25:08.405Z,18.45
2019-06-15T08:27:12.041Z,17.45
2019-06-15T08:29:15.785Z,17.62
2019-06-15T08:31:19.406Z,17.42
2019-06-15T08:33:23.090Z,18.67
2019-06-15T08:35:26.815Z,17.90
2019-06-15T08:37:30.614Z,19.23
2019-06-15T08:39:34.386Z,18.05
2019-06-15T08:41:38.193Z,18.57
2019-06-15T08:43:42.026Z,18.70
2019-06-15T08:45:45.679Z,17.67
2019-06-15T08:47:49.327Z,17.17
2019-06-15T08:49:52.979Z,16.07
2019-06-15T08:51:56.626Z,19.15
2019-06-15T08:54:00.368Z,18.00
2019-06-15T08:56:04.068Z,15.88
2019-06-15T08:58:07.862Z,17.20
2019-06-15T09:00:11.541Z,15.72
2019-06-15T09:02:15.341Z,15.45
2019-06-15T09:04:19.082Z,14.80
2019-06-15T09:06:22.695Z,15.13
2019-06-15T09:08:26.366Z,13.90
2019-06-15T09:10:30.026Z,15.58
2019-06-15T09:12:33.658Z,15.55
2019-06-15T09:14:37.396Z,14.35
2019-06-15T09:16:41.072Z,14.30
2019-06-15T09:18:57.268Z,13.62
2019-06-15T09:20:59.665Z,13.15
2019-06-15T09:23:03.391Z,13.43
2019-06-15T09:25:07.442Z,13.88
2019-06-15T09:27:11.175Z,13.48
2019-06-15T09:29:14.925Z,12.93
2019-06-15T09:31:18.574Z,12.98
2019-06-15T09:33:22.232Z,13.10
2019-06-15T09:35:25.886Z,11.20
2019-06-15T09:37:29.625Z,11.93
2019-06-15T09:39:33.383Z,9.38
2019-06-15T09:41:37.055Z,9.18
2019-06-15T09:43:40.736Z,8.75
2019-06-15T09:45:44.476Z,9.83
2019-06-15T09:47:48.181Z,8.70
2019-06-15T09:49:51.830Z,10.10
2019-06-15T09:51:55.557Z,8.65
2019-06-15T09:53:59.174Z,8.38
2019-06-15T09:56:02.953Z,8.70
2019-06-15T09:58:06.695Z,10.32
2019-06-15T10:00:10.725Z,9.88
2019-06-15T10:02:14.487Z,8.15
2019-06-15T10:04:18.204Z,8.60
2019-06-15T10:06:21.832Z,8.98
2019-06-15T10:08:25.543Z,8.83
2019-06-15T10:10:29.243Z,9.60
2019-06-15T10:12:32.881Z,9.75
2019-06-15T10:14:36.527Z,10.70
2019-06-15T10:16:40.160Z,9.78
2019-06-15T10:18:43.808Z,10.32
2019-06-15T10:20:47.550Z,11.30
2019-06-15T10:22:51.277Z,10.98
2019-06-15T10:24:54.964Z,12.10
2019-06-15T10:26:58.675Z,12.75
2019-06-15T10:29:02.392Z,11.73
2019-06-15T10:31:06.049Z,11.75
2019-06-15T10:33:09.796Z,12.03
2019-06-15T10:35:13.508Z,12.28
2019-06-15T10:37:17.186Z,12.10
2019-06-15T10:39:20.908Z,11.43
2019-06-15T10:41:24.547Z,11.75
2019-06-15T10:43:28.187Z,12.68
2019-06-15T10:45:31.851Z,12.70
2019-06-15T10:47:35.656Z,12.07
2019-06-15T10:49:39.295Z,11.45
2019-06-15T10:51:42.970Z,12.05
2019-06-15T10:53:46.811Z,11.35
2019-06-15T10:55:50.597Z,10.72
2019-06-15T10:57:54.335Z,11.63
2019-06-15T10:59:58.327Z,11.28
2019-06-15T11:02:02.029Z,11.30
2019-06-15T11:04:05.783Z,12.53
2019-06-15T11:06:09.417Z,12.88
2019-06-15T11:08:13.405Z,13.28
2019-06-15T11:10:21.405Z,14.18
2019-06-15T11:12:25.026Z,13.03
2019-06-15T11:14:28.782Z,15.08
2019-06-15T11:16:32.417Z,13.50
2019-06-15T11:18:36.364Z,13.05
2019-06-15T11:20:40.116Z,12.68
2019-06-15T11:22:43.724Z,12.25
2019-06-15T11:24:47.463Z,12.18
2019-06-15T11:26:51.161Z,12.33
2019-06-15T11:28:54.807Z,13.60
2019-06-15T11:30:58.514Z,12.85
2019-06-15T11:33:02.173Z,13.25
2019-06-15T11:35:05.874Z,12.93
2019-06-15T11:37:11.709Z,11.63
2019-06-15T11:39:14.980Z,12.58
2019-06-15T11:41:18.613Z,12.03
2019-06-15T11:43:22.278Z,12.55
2019-06-15T11:45:25.940Z,16.77
2019-06-15T11:47:29.727Z,19.45
2019-06-15T11:49:33.367Z,21.52
2019-06-15T11:51:37.078Z,20.40
2019-06-15T11:53:40.715Z,19.98
2019-06-15T11:55:44.421Z,18.48
2019-06-15T11:57:48.107Z,18.60
2019-06-15T11:59:51.822Z,16.12
2019-06-15T12:01:55.662Z,17.10
2019-06-15T12:03:59.417Z,17.87
2019-06-15T12:06:03.161Z,18.45
2019-06-15T12:08:06.791Z,19.02
2019-06-15T12:10:10.684Z,17.60
2019-06-15T12:12:14.432Z,18.00
2019-06-15T12:14:18.122Z,15.18
2019-06-15T12:16:21.857Z,13.98
2019-06-15T12:18:25.529Z,13.35
2019-06-15T12:20:29.298Z,12.93
2019-06-15T12:22:32.940Z,13.30
2019-06-15T12:24:36.575Z,11.90
2019-06-15T12:26:40.316Z,10.78
2019-06-15T12:28:44.244Z,9.10
2019-06-15T12:30:48.074Z,9.13
2019-06-15T12:32:51.750Z,9.30
2019-06-15T12:34:55.540Z,8.55
2019-06-15T12:36:59.253Z,7.87
2019-06-15T12:39:02.991Z,7.75
2019-06-15T12:41:06.613Z,7.90
2019-06-15T12:43:10.249Z,7.20
2019-06-15T12:45:14.108Z,6.50
2019-06-15T12:47:17.730Z,7.40
2019-06-15T12:49:21.469Z,9.10
2019-06-15T12:51:25.176Z,7.00
2019-06-15T12:53:28.821Z,6.67
2019-06-15T12:55:32.629Z,7.00
2019-06-15T12:57:36.324Z,7.65
2019-06-15T12:59:40.146Z,5.87
2019-06-15T13:01:43.980Z,4.42
2019-06-15T13:03:48.038Z,5.20
2019-06-15T13:05:51.721Z,4.55
2019-06-15T13:07:55.417Z,6.15
2019-06-15T13:09:59.063Z,6.20
2019-06-15T13:12:02.813Z,6.17
2019-06-15T13:14:06.594Z,4.95
2019-06-15T13:16:10.321Z,5.25
2019-06-15T13:18:14.099Z,10.68
2019-06-15T13:20:18.138Z,5.95
2019-06-15T13:22:21.768Z,5.80
2019-06-15T13:24:25.496Z,5.20
2019-06-15T13:26:29.331Z,5.28
2019-06-15T13:28:33.054Z,6.83
2019-06-15T13:30:36.680Z,5.17
2019-06-15T13:32:40.299Z,6.28
2019-06-15T13:34:44.000Z,6.37
2019-06-15T13:36:47.626Z,6.85
2019-06-15T13:38:51.256Z,5.05
2019-06-15T13:40:54.974Z,6.25
2019-06-15T13:42:58.668Z,7.50
2019-06-15T13:45:02.326Z,20.23
2019-06-15T13:47:06.029Z,6.67
2019-06-15T13:49:09.744Z,6.78
2019-06-15T13:51:13.375Z,5.05
2019-06-15T13:53:17.068Z,6.62
2019-06-15T13:55:22.070Z,5.87
2019-06-15T13:57:25.971Z,5.78
2019-06-15T13:59:29.627Z,6.62
2019-06-15T14:01:34.616Z,5.58
2019-06-15T14:03:38.514Z,6.28
2019-06-15T14:05:42.120Z,5.08
2019-06-15T14:07:45.756Z,7.83
2019-06-15T14:09:49.453Z,6.92
2019-06-15T14:11:53.246Z,6.92
2019-06-15T14:13:56.979Z,5.75
2019-06-15T14:16:00.681Z,5.45
2019-06-15T14:18:04.320Z,5.55
2019-06-15T14:20:08.220Z,6.03
2019-06-15T14:22:11.928Z,5.83
2019-06-15T14:24:15.663Z,4.45
2019-06-15T14:26:19.326Z,4.45
2019-06-15T14:28:22.966Z,5.00
2019-06-15T14:30:26.709Z,4.25
2019-06-15T14:32:31.791Z,3.87
2019-06-15T14:34:35.581Z,4.00
2019-06-15T14:36:39.368Z,6.42
2019-06-15T14:38:43.131Z,5.40
2019-06-15T14:40:46.828Z,5.45
2019-06-15T14:42:50.547Z,5.10
2019-06-15T14:44:54.234Z,3.52
2019-06-15T14:46:57.913Z,6.37
2019-06-15T14:49:01.638Z,4.15
2019-06-15T14:51:05.418Z,3.92
2019-06-15T14:53:09.108Z,3.72
2019-06-15T14:55:13.123Z,4.47
2019-06-15T14:57:16.842Z,5.20
2019-06-15T14:59:20.475Z,3.90
2019-06-15T15:01:26.124Z,3.60
2019-06-15T15:03:29.559Z,4.50
2019-06-15T15:05:33.276Z,3.77
2019-06-15T15:07:37.118Z,3.83
2019-06-15T15:09:40.871Z,3.98
2019-06-15T15:11:46.119Z,3.50
2019-06-15T15:13:50.065Z,3.60
2019-06-15T15:15:53.706Z,3.27
2019-06-15T15:17:57.818Z,3.30
2019-06-15T15:20:03.961Z,3.10
2019-06-15T15:22:07.173Z,2.67
2019-06-15T15:24:10.799Z,3.45
2019-06-15T15:26:16.969Z,2.52
2019-06-15T15:28:19.980Z,2.85
2019-06-15T15:30:30.637Z,2.60
2019-06-15T15:32:36.803Z,3.30
2019-06-15T15:34:39.773Z,2.60
2019-06-15T15:36:46.016Z,3.98
2019-06-15T15:38:49.006Z,2.65
2019-06-15T15:40:52.730Z,3.00
2019-06-15T15:42:56.472Z,2.62
2019-06-15T15:45:00.158Z,3.30
2019-06-15T15:47:03.966Z,4.72
2019-06-15T15:49:07.648Z,3.15
2019-06-15T15:51:11.357Z,4.90
2019-06-15T15:53:15.001Z,4.10
2019-06-15T15:55:18.641Z,3.50
2019-06-15T15:57:22.368Z,2.00
2019-06-15T15:59:26.008Z,2.00
2019-06-15T16:01:29.652Z,1.40
2019-06-15T16:03:33.356Z,2.27
2019-06-15T16:05:37.347Z,1.67
2019-06-15T16:07:41.220Z,1.45
2019-06-15T16:09:45.066Z,2.02
2019-06-15T16:11:48.787Z,4.03
2019-06-15T16:13:52.521Z,1.22
2019-06-15T16:15:56.281Z,0.68
2019-06-15T16:17:59.968Z,3.12
2019-06-15T16:20:06.480Z,1.80
2019-06-15T16:22:09.143Z,1.02
2019-06-15T16:24:12.763Z,1.55
2019-06-15T16:26:17.058Z,3.72
2019-06-15T16:28:20.930Z,2.02
2019-06-15T16:30:48.372Z,2.15
2019-06-15T16:32:33.814Z,1.98
2019-06-15T16:34:37.568Z,1.47
2019-06-15T16:36:41.227Z,0.60
2019-06-15T16:38:47.018Z,1.50
2019-06-15T16:40:50.302Z,0.60
2019-06-15T16:42:56.461Z,2.40
2019-06-15T16:44:59.470Z,1.05
2019-06-15T16:47:03.116Z,0.60
2019-06-15T16:49:06.761Z,1.07
2019-06-15T16:51:10.398Z,1.57
2019-06-15T16:53:16.648Z,0.85
2019-06-15T16:55:19.579Z,0.80
2019-06-15T16:57:23.330Z,2.65
2019-06-15T16:59:27.063Z,1.67
2019-06-15T17:01:30.784Z,2.02
2019-06-15T17:03:36.511Z,4.97
2019-06-15T17:05:39.996Z,1.00
2019-06-15T17:07:45.884Z,1.12
2019-06-15T17:09:49.176Z,2.30
2019-06-15T17:11:52.946Z,3.15
2019-06-15T17:13:56.660Z,2.30
2019-06-15T17:16:00.396Z,1.10
2019-06-15T17:18:04.328Z,1.47
2019-06-15T17:20:08.348Z,0.82
2019-06-15T17:22:18.699Z,1.15
2019-06-15T17:24:17.328Z,2.85
2019-06-15T17:26:21.030Z,4.97
2019-06-15T17:28:26.557Z,1.75
2019-06-15T17:30:30.149Z,1.80
2019-06-15T17:32:33.806Z,1.70
2019-06-15T17:34:37.487Z,4.67
2019-06-15T17:36:41.186Z,1.35
2019-06-15T17:38:46.289Z,2.98
2019-06-15T17:40:50.196Z,2.45
2019-06-15T17:42:53.828Z,1.40
2019-06-15T17:44:57.546Z,1.85
2019-06-15T17:47:01.252Z,1.30
2019-06-15T17:49:06.767Z,0.98
2019-06-15T17:51:10.436Z,0.78
2019-06-15T17:53:14.050Z,1.62
2019-06-15T17:55:17.999Z,2.58
2019-06-15T17:57:21.860Z,2.42
2019-06-15T17:59:26.702Z,2.25
2019-06-15T18:01:30.531Z,3.05
2019-06-15T18:03:49.982Z,2.70
2019-06-15T18:05:41.288Z,1.70
2019-06-15T18:07:46.961Z,3.35
2019-06-15T18:09:50.426Z,3.08
2019-06-15T18:11:54.117Z,2.30
2019-06-15T18:13:57.737Z,2.40
2019-06-15T18:16:01.391Z,4.92
2019-06-15T18:18:07.105Z,3.50
2019-06-15T18:20:10.495Z,1.62
2019-06-15T18:22:16.777Z,3.10
2019-06-15T18:24:19.569Z,1.77
2019-06-15T18:26:23.192Z,1.72
2019-06-15T18:28:26.846Z,3.08
2019-06-15T18:30:30.525Z,2.98
2019-06-15T18:32:34.163Z,2.02
2019-06-15T18:34:37.986Z,2.35
2019-06-15T18:36:41.671Z,3.12
2019-06-15T18:38:46.549Z,1.47
2019-06-15T18:40:50.485Z,1.65
2019-06-15T18:42:55.938Z,3.42
2019-06-15T18:44:59.542Z,2.08
2019-06-15T18:47:03.167Z,1.72
2019-06-15T18:49:06.949Z,2.60
2019-06-15T18:51:10.582Z,1.65
2019-06-15T18:53:14.229Z,1.70
2019-06-15T18:55:18.011Z,6.33
2019-06-15T18:57:21.703Z,8.18
2019-06-15T18:59:26.095Z,4.00
2019-06-15T19:01:30.036Z,2.77
2019-06-15T19:03:33.674Z,1.60
2019-06-15T19:05:37.621Z,4.30
2019-06-15T19:07:41.370Z,1.98
2019-06-15T19:09:46.615Z,2.17
2019-06-15T19:11:50.412Z,1.67
2019-06-15T19:13:56.188Z,1.95
2019-06-15T19:15:59.521Z,8.63
2019-06-15T19:18:03.241Z,4.03
2019-06-15T19:20:06.942Z,2.37
2019-06-15T19:22:10.584Z,30.57
2019-06-15T19:24:16.585Z,3.77
2019-06-15T19:26:19.917Z,2.12
2019-06-15T19:28:23.602Z,3.92
2019-06-15T19:30:27.289Z,4.03
2019-06-15T19:32:30.930Z,1.65
2019-06-15T19:34:44.193Z,2.58
2019-06-15T19:36:40.049Z,2.87
2019-06-15T19:38:47.061Z,4.78
2019-06-15T19:40:51.441Z,10.93
2019-06-15T19:42:57.039Z,2.10
2019-06-15T19:45:00.541Z,1.95
2019-06-15T19:47:06.656Z,3.10
2019-06-15T19:49:09.673Z,3.62
2019-06-15T19:51:13.385Z,6.50
2019-06-15T19:53:17.371Z,2.83
2019-06-15T19:55:21.227Z,2.45
2019-06-15T19:57:27.038Z,1.90
2019-06-15T19:59:30.414Z,2.40
2019-06-15T20:01:36.269Z,10.15
2019-06-15T20:03:39.584Z,2.35
2019-06-15T20:05:46.005Z,1.98
2019-06-15T20:07:48.781Z,1.80
2019-06-15T20:09:52.528Z,2.00
2019-06-15T20:11:56.226Z,2.55
2019-06-15T20:13:59.907Z,2.40
2019-06-15T20:16:05.266Z,2.20
2019-06-15T20:18:09.040Z,5.28
2019-06-15T20:20:13.085Z,3.40
2019-06-15T20:22:17.590Z,3.12
2019-06-15T20:24:21.596Z,4.05
2019-06-15T20:26:26.778Z,2.40
2019-06-15T20:28:30.724Z,3.58
2019-06-15T20:30:36.720Z,4.37
2019-06-15T20:32:39.922Z,2.10
2019-06-15T20:34:46.095Z,3.08
2019-06-15T20:36:48.921Z,3.50
2019-06-15T20:38:52.717Z,4.08
2019-06-15T20:40:56.665Z,4.22
2019-06-15T20:43:00.504Z,6.37
2019-06-15T20:45:04.762Z,3.15
2019-06-15T20:47:08.434Z,3.05
2019-06-15T20:49:12.147Z,2.40
2019-06-15T20:51:17.312Z,2.58
2019-06-15T20:53:21.228Z,3.35
2019-06-15T20:55:26.555Z,3.02
2019-06-15T20:57:30.543Z,3.33
2019-06-15T20:59:36.772Z,3.27
2019-06-15T21:01:39.649Z,3.25
2019-06-15T21:03:43.322Z,2.50
2019-06-15T21:05:47.839Z,3.35
2019-06-15T21:07:51.785Z,2.87
2019-06-15T21:09:57.397Z,3.30
2019-06-15T21:12:00.957Z,2.17
2019-06-15T21:14:04.953Z,2.20
2019-06-15T21:16:08.682Z,2.92
2019-06-15T21:18:12.329Z,2.35
2019-06-15T21:20:16.272Z,4.35
2019-06-15T21:22:20.167Z,2.33
2019-06-15T21:24:26.235Z,2.27
2019-06-15T21:26:29.315Z,2.77
2019-06-15T21:28:32.971Z,3.20
2019-06-15T21:30:37.014Z,3.58
2019-06-15T21:32:40.809Z,2.67
2019-06-15T21:34:46.485Z,2.40
2019-06-15T21:36:49.956Z,3.67
2019-06-15T21:38:56.119Z,2.37
2019-06-15T21:40:59.004Z,2.70
2019-06-15T21:43:02.815Z,4.20
2019-06-15T21:45:07.627Z,3.10
2019-06-15T21:47:11.708Z,2.95
2019-06-15T21:49:15.921Z,3.10
2019-06-15T21:51:19.712Z,3.27
2019-06-15T21:53:23.338Z,3.37
2019-06-15T21:55:27.023Z,3.00
2019-06-15T21:57:30.646Z,5.80
2019-06-15T21:59:36.728Z,5.53
2019-06-15T22:01:39.787Z,5.22
2019-06-15T22:03:46.314Z,4.47
2019-06-15T22:05:59.768Z,6.62
2019-06-15T22:07:56.636Z,3.58
2019-06-15T22:09:59.752Z,3.12
2019-06-15T22:12:03.513Z,3.90
2019-06-15T22:14:07.201Z,3.37
2019-06-15T22:16:13.799Z,5.22
2019-06-15T22:18:16.561Z,4.12
2019-06-15T22:20:20.394Z,5.92
2019-06-15T22:22:27.149Z,3.30
2019-06-15T22:24:29.572Z,5.95
2019-06-15T22:26:33.692Z,5.83
2019-06-15T22:28:37.463Z,4.90
2019-06-15T22:30:41.183Z,7.33
2019-06-15T22:32:47.080Z,8.08
2019-06-15T22:34:50.332Z,8.90
2019-06-15T22:36:54.084Z,9.50
2019-06-15T22:38:57.843Z,11.15
2019-06-15T22:41:01.586Z,10.58
2019-06-15T22:43:07.004Z,7.60
2019-06-15T22:45:11.246Z,7.45
2019-06-15T22:47:16.855Z,6.65
2019-06-15T22:49:20.521Z,6.55
2019-06-15T22:51:24.329Z,5.62
2019-06-15T22:53:28.151Z,5.15
2019-06-15T22:55:31.905Z,4.87
2019-06-15T22:57:37.054Z,4.12
2019-06-15T22:59:40.960Z,3.87
2019-06-15T23:01:46.039Z,3.50
2019-06-15T23:03:49.882Z,4.08
2019-06-15T23:05:53.527Z,3.40
2019-06-15T23:07:57.232Z,4.15
2019-06-15T23:10:00.930Z,3.62
2019-06-15T23:12:06.970Z,4.15
2019-06-15T23:14:10.311Z,4.12
2019-06-15T23:16:13.954Z,4.30
2019-06-15T23:18:17.612Z,4.17
2019-06-15T23:20:21.350Z,4.92
2019-06-15T23:22:24.978Z,8.83
2019-06-15T23:24:28.750Z,4.83
2019-06-15T23:26:32.379Z,4.67
2019-06-15T23:28:36.078Z,4.15
2019-06-15T23:30:39.885Z,3.90
2019-06-15T23:32:46.185Z,4.83
2019-06-15T23:34:49.411Z,3.70
2019-06-15T23:36:58.039Z,3.87
2019-06-15T23:39:00.085Z,3.90
2019-06-15T23:41:03.879Z,5.45
2019-06-15T23:43:07.591Z,3.85
2019-06-15T23:45:11.293Z,3.95
2019-06-15T23:47:17.075Z,3.83
2019-06-15T23:49:20.330Z,4.80
2019-06-15T23:51:26.257Z,4.33
2019-06-15T23:53:29.396Z,4.03
2019-06-15T23:55:33.100Z,6.30
2019-06-15T23:57:36.965Z,4.92
2019-06-15T23:59:40.718Z,4.42
